sensor_id;sensor_type;location;lat;lon;timestamp;temperature;humidity
54518;DHT22;40423;53.176;6.002;2023-07-08T00:02:12;17.80;96.30
54518;DHT22;40423;53.176;6.002;2023-07-08T00:04:39;17.80;96.30
54518;DHT22;40423;53.176;6.002;2023-07-08T00:07:05;17.70;96.30
54518;DHT22;40423;53.176;6.002;2023-07-08T00:09:34;17.70;96.30
54518;DHT22;40423;53.176;6.002;2023-07-08T00:12:00;17.80;96.30
54518;DHT22;40423;53.176;6.002;2023-07-08T00:14:26;17.70;96.50
54518;DHT22;40423;53.176;6.002;2023-07-08T00:16:51;17.70;96.70
54518;DHT22;40423;53.176;6.002;2023-07-08T00:19:17;17.60;96.80
54518;DHT22;40423;53.176;6.002;2023-07-08T00:21:50;17.60;96.70
54518;DHT22;40423;53.176;6.002;2023-07-08T00:24:17;17.60;96.80
54518;DHT22;40423;53.176;6.002;2023-07-08T00:26:43;17.50;96.90
54518;DHT22;40423;53.176;6.002;2023-07-08T00:29:09;17.50;96.90
54518;DHT22;40423;53.176;6.002;2023-07-08T00:31:35;17.50;97.00
54518;DHT22;40423;53.176;6.002;2023-07-08T00:34:01;17.50;97.00
54518;DHT22;40423;53.176;6.002;2023-07-08T00:36:29;17.50;97.20
54518;DHT22;40423;53.176;6.002;2023-07-08T00:38:56;17.50;97.20
54518;DHT22;40423;53.176;6.002;2023-07-08T00:41:35;17.50;97.20
54518;DHT22;40423;53.176;6.002;2023-07-08T00:44:01;17.50;97.30
54518;DHT22;40423;53.176;6.002;2023-07-08T00:51:39;17.40;97.40
54518;DHT22;40423;53.176;6.002;2023-07-08T00:54:17;17.40;97.40
54518;DHT22;40423;53.176;6.002;2023-07-08T00:59:14;17.40;97.70
54518;DHT22;40423;53.176;6.002;2023-07-08T01:01:43;17.30;97.80
54518;DHT22;40423;53.176;6.002;2023-07-08T01:04:15;17.30;97.80
54518;DHT22;40423;53.176;6.002;2023-07-08T01:06:45;17.30;97.80
54518;DHT22;40423;53.176;6.002;2023-07-08T01:09:14;17.30;97.90
54518;DHT22;40423;53.176;6.002;2023-07-08T01:11:41;17.30;98.00
54518;DHT22;40423;53.176;6.002;2023-07-08T01:14:09;17.20;98.00
54518;DHT22;40423;53.176;6.002;2023-07-08T01:16:36;17.20;98.20
54518;DHT22;40423;53.176;6.002;2023-07-08T01:19:04;17.20;98.10
54518;DHT22;40423;53.176;6.002;2023-07-08T01:21:35;17.20;98.10
54518;DHT22;40423;53.176;6.002;2023-07-08T01:24:04;17.20;98.10
54518;DHT22;40423;53.176;6.002;2023-07-08T01:26:34;17.20;98.10
54518;DHT22;40423;53.176;6.002;2023-07-08T01:29:01;17.20;98.20
54518;DHT22;40423;53.176;6.002;2023-07-08T01:31:28;17.20;98.20
54518;DHT22;40423;53.176;6.002;2023-07-08T01:33:54;17.20;98.20
54518;DHT22;40423;53.176;6.002;2023-07-08T01:36:20;17.20;98.30
54518;DHT22;40423;53.176;6.002;2023-07-08T01:38:47;17.20;98.50
54518;DHT22;40423;53.176;6.002;2023-07-08T01:41:14;17.10;98.50
54518;DHT22;40423;53.176;6.002;2023-07-08T01:43:41;17.20;98.50
54518;DHT22;40423;53.176;6.002;2023-07-08T01:46:22;17.20;98.60
54518;DHT22;40423;53.176;6.002;2023-07-08T01:48:53;17.10;98.80
54518;DHT22;40423;53.176;6.002;2023-07-08T01:51:20;17.10;98.70
54518;DHT22;40423;53.176;6.002;2023-07-08T01:53:47;17.10;98.80
54518;DHT22;40423;53.176;6.002;2023-07-08T01:56:14;17.10;98.80
54518;DHT22;40423;53.176;6.002;2023-07-08T01:58:40;17.10;98.80
54518;DHT22;40423;53.176;6.002;2023-07-08T02:01:07;17.00;98.80
54518;DHT22;40423;53.176;6.002;2023-07-08T02:03:33;17.00;98.90
54518;DHT22;40423;53.176;6.002;2023-07-08T02:05:59;17.00;99.00
54518;DHT22;40423;53.176;6.002;2023-07-08T02:08:25;17.00;99.20
54518;DHT22;40423;53.176;6.002;2023-07-08T02:10:57;17.00;99.20
54518;DHT22;40423;53.176;6.002;2023-07-08T02:13:23;16.90;99.30
54518;DHT22;40423;53.176;6.002;2023-07-08T02:15:49;16.90;99.40
54518;DHT22;40423;53.176;6.002;2023-07-08T02:18:15;16.90;99.40
54518;DHT22;40423;53.176;6.002;2023-07-08T02:20:44;16.90;99.50
54518;DHT22;40423;53.176;6.002;2023-07-08T02:23:10;16.80;99.60
54518;DHT22;40423;53.176;6.002;2023-07-08T02:25:36;16.80;99.90
54518;DHT22;40423;53.176;6.002;2023-07-08T02:28:02;16.80;99.80
54518;DHT22;40423;53.176;6.002;2023-07-08T02:30:28;16.70;99.90
54518;DHT22;40423;53.176;6.002;2023-07-08T02:32:54;16.70;99.90
54518;DHT22;40423;53.176;6.002;2023-07-08T02:35:28;16.70;99.90
54518;DHT22;40423;53.176;6.002;2023-07-08T02:37:55;16.70;99.90
54518;DHT22;40423;53.176;6.002;2023-07-08T02:40:22;16.60;99.90
54518;DHT22;40423;53.176;6.002;2023-07-08T02:42:48;16.60;99.90
54518;DHT22;40423;53.176;6.002;2023-07-08T02:45:15;16.60;99.90
54518;DHT22;40423;53.176;6.002;2023-07-08T02:47:41;16.60;99.90
54518;DHT22;40423;53.176;6.002;2023-07-08T02:50:08;16.60;99.90
54518;DHT22;40423;53.176;6.002;2023-07-08T02:52:34;16.50;99.90
54518;DHT22;40423;53.176;6.002;2023-07-08T02:55:00;16.60;99.90
54518;DHT22;40423;53.176;6.002;2023-07-08T02:57:25;16.50;99.90
54518;DHT22;40423;53.176;6.002;2023-07-08T02:59:51;16.50;99.90
54518;DHT22;40423;53.176;6.002;2023-07-08T03:02:17;16.50;99.90
54518;DHT22;40423;53.176;6.002;2023-07-08T03:04:42;16.50;99.90
54518;DHT22;40423;53.176;6.002;2023-07-08T03:07:10;16.40;99.90
54518;DHT22;40423;53.176;6.002;2023-07-08T03:09:40;16.40;99.90
54518;DHT22;40423;53.176;6.002;2023-07-08T03:12:08;16.40;99.90
54518;DHT22;40423;53.176;6.002;2023-07-08T03:14:34;16.40;99.90
54518;DHT22;40423;53.176;6.002;2023-07-08T03:17:00;16.40;99.90
54518;DHT22;40423;53.176;6.002;2023-07-08T03:19:26;16.40;99.90
54518;DHT22;40423;53.176;6.002;2023-07-08T03:21:51;16.40;99.90
54518;DHT22;40423;53.176;6.002;2023-07-08T03:24:17;16.40;99.90
54518;DHT22;40423;53.176;6.002;2023-07-08T03:26:44;16.40;99.90
54518;DHT22;40423;53.176;6.002;2023-07-08T03:29:15;16.40;99.90
54518;DHT22;40423;53.176;6.002;2023-07-08T03:31:42;16.40;99.90
54518;DHT22;40423;53.176;6.002;2023-07-08T03:34:13;16.40;99.90
54518;DHT22;40423;53.176;6.002;2023-07-08T03:36:47;16.40;99.90
54518;DHT22;40423;53.176;6.002;2023-07-08T03:39:18;16.40;99.90
54518;DHT22;40423;53.176;6.002;2023-07-08T03:41:44;16.30;99.90
54518;DHT22;40423;53.176;6.002;2023-07-08T03:44:11;16.30;99.90
54518;DHT22;40423;53.176;6.002;2023-07-08T03:46:37;16.30;99.90
54518;DHT22;40423;53.176;6.002;2023-07-08T03:49:02;16.30;99.90
54518;DHT22;40423;53.176;6.002;2023-07-08T03:51:32;16.30;99.90
54518;DHT22;40423;53.176;6.002;2023-07-08T03:53:58;16.40;99.90
54518;DHT22;40423;53.176;6.002;2023-07-08T03:56:24;16.40;99.90
54518;DHT22;40423;53.176;6.002;2023-07-08T03:58:50;16.40;99.90
54518;DHT22;40423;53.176;6.002;2023-07-08T04:01:18;16.40;99.90
54518;DHT22;40423;53.176;6.002;2023-07-08T04:03:46;16.40;99.90
54518;DHT22;40423;53.176;6.002;2023-07-08T04:06:12;16.40;99.90
54518;DHT22;40423;53.176;6.002;2023-07-08T04:08:38;16.40;99.90
54518;DHT22;40423;53.176;6.002;2023-07-08T04:11:03;16.50;99.90
54518;DHT22;40423;53.176;6.002;2023-07-08T04:13:29;16.50;99.90
54518;DHT22;40423;53.176;6.002;2023-07-08T04:16:02;16.50;99.90
54518;DHT22;40423;53.176;6.002;2023-07-08T04:18:28;16.50;99.90
54518;DHT22;40423;53.176;6.002;2023-07-08T04:20:54;16.50;99.90
54518;DHT22;40423;53.176;6.002;2023-07-08T04:23:20;16.50;99.90
54518;DHT22;40423;53.176;6.002;2023-07-08T04:25:47;16.50;99.90
54518;DHT22;40423;53.176;6.002;2023-07-08T04:28:14;16.50;99.90
54518;DHT22;40423;53.176;6.002;2023-07-08T04:30:39;16.50;99.90
54518;DHT22;40423;53.176;6.002;2023-07-08T04:33:12;16.60;99.90
54518;DHT22;40423;53.176;6.002;2023-07-08T04:35:39;16.60;99.90
54518;DHT22;40423;53.176;6.002;2023-07-08T04:38:06;16.60;99.90
54518;DHT22;40423;53.176;6.002;2023-07-08T04:40:37;16.60;99.90
54518;DHT22;40423;53.176;6.002;2023-07-08T04:43:05;16.70;99.90
54518;DHT22;40423;53.176;6.002;2023-07-08T04:45:31;16.70;99.90
54518;DHT22;40423;53.176;6.002;2023-07-08T04:47:57;16.70;99.90
54518;DHT22;40423;53.176;6.002;2023-07-08T04:50:23;16.80;99.90
54518;DHT22;40423;53.176;6.002;2023-07-08T04:52:48;16.80;99.90
54518;DHT22;40423;53.176;6.002;2023-07-08T04:55:15;16.90;99.90
54518;DHT22;40423;53.176;6.002;2023-07-08T04:57:41;16.90;99.90
54518;DHT22;40423;53.176;6.002;2023-07-08T05:00:10;16.90;99.90
54518;DHT22;40423;53.176;6.002;2023-07-08T05:02:38;17.00;99.90
54518;DHT22;40423;53.176;6.002;2023-07-08T05:05:04;17.00;99.90
54518;DHT22;40423;53.176;6.002;2023-07-08T05:07:30;17.10;99.90
54518;DHT22;40423;53.176;6.002;2023-07-08T05:09:55;17.10;99.90
54518;DHT22;40423;53.176;6.002;2023-07-08T05:12:21;17.10;99.90
54518;DHT22;40423;53.176;6.002;2023-07-08T05:14:47;17.20;99.90
54518;DHT22;40423;53.176;6.002;2023-07-08T05:17:13;17.20;99.90
54518;DHT22;40423;53.176;6.002;2023-07-08T05:19:38;17.30;99.90
54518;DHT22;40423;53.176;6.002;2023-07-08T05:22:06;17.40;99.90
54518;DHT22;40423;53.176;6.002;2023-07-08T05:24:32;17.40;99.90
54518;DHT22;40423;53.176;6.002;2023-07-08T05:26:58;17.50;99.90
54518;DHT22;40423;53.176;6.002;2023-07-08T05:29:25;17.60;99.90
54518;DHT22;40423;53.176;6.002;2023-07-08T05:31:50;17.60;99.90
54518;DHT22;40423;53.176;6.002;2023-07-08T05:34:16;17.70;99.90
54518;DHT22;40423;53.176;6.002;2023-07-08T05:36:42;17.80;99.90
54518;DHT22;40423;53.176;6.002;2023-07-08T05:39:08;17.90;99.90
54518;DHT22;40423;53.176;6.002;2023-07-08T05:41:33;17.90;99.90
54518;DHT22;40423;53.176;6.002;2023-07-08T05:43:59;18.10;99.90
54518;DHT22;40423;53.176;6.002;2023-07-08T05:46:25;18.10;99.90
54518;DHT22;40423;53.176;6.002;2023-07-08T05:48:50;18.20;99.90
54518;DHT22;40423;53.176;6.002;2023-07-08T05:51:16;18.30;99.90
54518;DHT22;40423;53.176;6.002;2023-07-08T05:53:42;18.40;99.90
54518;DHT22;40423;53.176;6.002;2023-07-08T05:56:08;18.50;99.90
54518;DHT22;40423;53.176;6.002;2023-07-08T05:58:34;18.60;99.90
54518;DHT22;40423;53.176;6.002;2023-07-08T06:01:00;18.70;99.90
54518;DHT22;40423;53.176;6.002;2023-07-08T06:03:26;18.80;99.90
54518;DHT22;40423;53.176;6.002;2023-07-08T06:05:52;18.90;99.90
54518;DHT22;40423;53.176;6.002;2023-07-08T06:08:18;19.00;99.90
54518;DHT22;40423;53.176;6.002;2023-07-08T06:10:44;19.10;99.90
54518;DHT22;40423;53.176;6.002;2023-07-08T06:13:11;19.10;99.90
54518;DHT22;40423;53.176;6.002;2023-07-08T06:15:37;19.20;99.90
54518;DHT22;40423;53.176;6.002;2023-07-08T06:18:03;19.30;99.90
54518;DHT22;40423;53.176;6.002;2023-07-08T06:20:29;19.40;99.90
54518;DHT22;40423;53.176;6.002;2023-07-08T06:22:55;19.50;99.90
54518;DHT22;40423;53.176;6.002;2023-07-08T06:25:21;19.60;99.90
54518;DHT22;40423;53.176;6.002;2023-07-08T06:27:47;19.70;99.90
54518;DHT22;40423;53.176;6.002;2023-07-08T06:30:13;19.80;99.90
54518;DHT22;40423;53.176;6.002;2023-07-08T06:32:39;19.90;99.90
54518;DHT22;40423;53.176;6.002;2023-07-08T06:35:05;20.00;99.90
54518;DHT22;40423;53.176;6.002;2023-07-08T06:37:31;20.10;99.70
54518;DHT22;40423;53.176;6.002;2023-07-08T06:39:56;20.20;99.40
54518;DHT22;40423;53.176;6.002;2023-07-08T06:42:22;20.30;99.50
54518;DHT22;40423;53.176;6.002;2023-07-08T06:44:48;20.40;99.20
54518;DHT22;40423;53.176;6.002;2023-07-08T06:47:20;20.50;98.60
54518;DHT22;40423;53.176;6.002;2023-07-08T06:49:47;20.50;98.40
54518;DHT22;40423;53.176;6.002;2023-07-08T06:52:13;20.60;98.50
54518;DHT22;40423;53.176;6.002;2023-07-08T06:54:39;20.60;98.30
54518;DHT22;40423;53.176;6.002;2023-07-08T06:57:05;20.70;98.40
54518;DHT22;40423;53.176;6.002;2023-07-08T06:59:32;20.90;98.30
54518;DHT22;40423;53.176;6.002;2023-07-08T07:01:58;21.00;97.80
54518;DHT22;40423;53.176;6.002;2023-07-08T07:04:23;21.10;97.70
54518;DHT22;40423;53.176;6.002;2023-07-08T07:06:49;21.10;97.80
54518;DHT22;40423;53.176;6.002;2023-07-08T07:09:14;21.20;97.30
54518;DHT22;40423;53.176;6.002;2023-07-08T07:11:40;21.20;97.40
54518;DHT22;40423;53.176;6.002;2023-07-08T07:14:06;21.40;97.40
54518;DHT22;40423;53.176;6.002;2023-07-08T07:16:32;21.50;97.10
54518;DHT22;40423;53.176;6.002;2023-07-08T07:18:57;21.60;97.20
54518;DHT22;40423;53.176;6.002;2023-07-08T07:21:23;21.80;97.30
54518;DHT22;40423;53.176;6.002;2023-07-08T07:23:49;21.90;96.70
54518;DHT22;40423;53.176;6.002;2023-07-08T07:26:15;22.00;96.90
54518;DHT22;40423;53.176;6.002;2023-07-08T07:28:41;22.00;96.20
54518;DHT22;40423;53.176;6.002;2023-07-08T07:31:06;22.10;96.50
54518;DHT22;40423;53.176;6.002;2023-07-08T07:33:33;22.30;96.30
54518;DHT22;40423;53.176;6.002;2023-07-08T07:35:59;22.40;96.20
54518;DHT22;40423;53.176;6.002;2023-07-08T07:38:25;22.40;95.70
54518;DHT22;40423;53.176;6.002;2023-07-08T07:40:54;22.50;95.70
54518;DHT22;40423;53.176;6.002;2023-07-08T07:43:21;22.60;95.90
54518;DHT22;40423;53.176;6.002;2023-07-08T07:45:56;22.70;95.80
54518;DHT22;40423;53.176;6.002;2023-07-08T07:48:21;22.80;95.60
54518;DHT22;40423;53.176;6.002;2023-07-08T07:50:50;22.80;95.60
54518;DHT22;40423;53.176;6.002;2023-07-08T07:53:17;22.90;95.20
54518;DHT22;40423;53.176;6.002;2023-07-08T07:55:43;22.90;95.40
54518;DHT22;40423;53.176;6.002;2023-07-08T07:58:09;23.00;95.70
54518;DHT22;40423;53.176;6.002;2023-07-08T08:00:38;23.10;95.10
54518;DHT22;40423;53.176;6.002;2023-07-08T08:03:04;23.20;95.10
54518;DHT22;40423;53.176;6.002;2023-07-08T08:05:30;23.30;95.30
54518;DHT22;40423;53.176;6.002;2023-07-08T08:07:56;23.40;95.30
54518;DHT22;40423;53.176;6.002;2023-07-08T08:10:21;23.50;95.10
54518;DHT22;40423;53.176;6.002;2023-07-08T08:12:47;23.60;94.40
54518;DHT22;40423;53.176;6.002;2023-07-08T08:15:16;23.60;94.60
54518;DHT22;40423;53.176;6.002;2023-07-08T08:17:42;23.70;94.50
54518;DHT22;40423;53.176;6.002;2023-07-08T08:20:13;23.80;94.50
54518;DHT22;40423;53.176;6.002;2023-07-08T08:22:39;23.90;94.50
54518;DHT22;40423;53.176;6.002;2023-07-08T08:25:05;23.90;94.60
54518;DHT22;40423;53.176;6.002;2023-07-08T08:27:30;24.00;94.60
54518;DHT22;40423;53.176;6.002;2023-07-08T08:29:56;24.10;94.20
54518;DHT22;40423;53.176;6.002;2023-07-08T08:32:22;24.20;94.10
54518;DHT22;40423;53.176;6.002;2023-07-08T08:34:47;24.30;94.10
54518;DHT22;40423;53.176;6.002;2023-07-08T08:37:14;24.40;93.90
54518;DHT22;40423;53.176;6.002;2023-07-08T08:39:40;24.50;93.70
54518;DHT22;40423;53.176;6.002;2023-07-08T08:42:18;24.60;94.00
54518;DHT22;40423;53.176;6.002;2023-07-08T08:44:46;24.80;93.50
54518;DHT22;40423;53.176;6.002;2023-07-08T08:47:37;24.80;93.80
54518;DHT22;40423;53.176;6.002;2023-07-08T08:52:42;25.00;93.10
54518;DHT22;40423;53.176;6.002;2023-07-08T08:55:12;25.00;93.20
54518;DHT22;40423;53.176;6.002;2023-07-08T08:57:43;25.20;93.40
54518;DHT22;40423;53.176;6.002;2023-07-08T09:00:14;25.30;93.00
54518;DHT22;40423;53.176;6.002;2023-07-08T09:05:19;25.60;93.10
54518;DHT22;40423;53.176;6.002;2023-07-08T09:08:05;25.70;92.80
54518;DHT22;40423;53.176;6.002;2023-07-08T09:10:52;25.70;93.20
54518;DHT22;40423;53.176;6.002;2023-07-08T09:13:35;25.80;93.10
54518;DHT22;40423;53.176;6.002;2023-07-08T09:16:06;25.90;91.60
54518;DHT22;40423;53.176;6.002;2023-07-08T09:18:40;25.90;92.50
54518;DHT22;40423;53.176;6.002;2023-07-08T09:21:19;26.10;92.90
54518;DHT22;40423;53.176;6.002;2023-07-08T09:23:47;26.20;92.50
54518;DHT22;40423;53.176;6.002;2023-07-08T09:26:19;26.30;92.10
54518;DHT22;40423;53.176;6.002;2023-07-08T09:28:46;26.20;91.60
54518;DHT22;40423;53.176;6.002;2023-07-08T09:31:28;26.30;92.00
54518;DHT22;40423;53.176;6.002;2023-07-08T09:34:07;26.50;91.80
54518;DHT22;40423;53.176;6.002;2023-07-08T09:36:33;26.50;91.70
54518;DHT22;40423;53.176;6.002;2023-07-08T09:39:00;26.60;91.50
54518;DHT22;40423;53.176;6.002;2023-07-08T09:41:33;26.50;91.10
54518;DHT22;40423;53.176;6.002;2023-07-08T09:44:06;26.60;91.70
54518;DHT22;40423;53.176;6.002;2023-07-08T09:46:38;26.80;91.10
54518;DHT22;40423;53.176;6.002;2023-07-08T09:49:36;26.80;91.10
54518;DHT22;40423;53.176;6.002;2023-07-08T09:52:02;26.90;90.80
54518;DHT22;40423;53.176;6.002;2023-07-08T09:54:28;27.00;91.30
54518;DHT22;40423;53.176;6.002;2023-07-08T09:57:00;27.10;90.20
54518;DHT22;40423;53.176;6.002;2023-07-08T09:59:39;27.10;90.70
54518;DHT22;40423;53.176;6.002;2023-07-08T10:02:29;27.20;91.50
54518;DHT22;40423;53.176;6.002;2023-07-08T10:04:58;27.40;90.50
54518;DHT22;40423;53.176;6.002;2023-07-08T10:07:31;27.40;90.80
54518;DHT22;40423;53.176;6.002;2023-07-08T10:10:00;27.50;90.70
54518;DHT22;40423;53.176;6.002;2023-07-08T10:12:28;27.60;90.40
54518;DHT22;40423;53.176;6.002;2023-07-08T10:15:00;27.70;91.10
54518;DHT22;40423;53.176;6.002;2023-07-08T10:17:28;27.90;91.40
54518;DHT22;40423;53.176;6.002;2023-07-08T10:19:55;28.00;90.60
54518;DHT22;40423;53.176;6.002;2023-07-08T10:22:29;28.10;90.20
54518;DHT22;40423;53.176;6.002;2023-07-08T10:25:27;28.20;89.90
54518;DHT22;40423;53.176;6.002;2023-07-08T10:30:31;28.20;90.80
54518;DHT22;40423;53.176;6.002;2023-07-08T10:36:36;28.60;90.40
54518;DHT22;40423;53.176;6.002;2023-07-08T10:44:43;28.80;90.60
54518;DHT22;40423;53.176;6.002;2023-07-08T10:47:50;28.90;90.30
54518;DHT22;40423;53.176;6.002;2023-07-08T10:53:31;29.00;90.40
54518;DHT22;40423;53.176;6.002;2023-07-08T10:56:21;29.20;90.40
54518;DHT22;40423;53.176;6.002;2023-07-08T11:05:07;29.50;88.80
54518;DHT22;40423;53.176;6.002;2023-07-08T11:07:39;29.60;90.10
54518;DHT22;40423;53.176;6.002;2023-07-08T11:10:12;29.60;87.90
54518;DHT22;40423;53.176;6.002;2023-07-08T11:13:13;29.70;86.70
54518;DHT22;40423;53.176;6.002;2023-07-08T11:15:54;29.80;87.70
54518;DHT22;40423;53.176;6.002;2023-07-08T11:21:12;29.80;87.00
54518;DHT22;40423;53.176;6.002;2023-07-08T11:26:33;30.10;86.90
54518;DHT22;40423;53.176;6.002;2023-07-08T11:29:04;30.20;84.70
54518;DHT22;40423;53.176;6.002;2023-07-08T11:31:36;30.30;85.60
54518;DHT22;40423;53.176;6.002;2023-07-08T11:34:02;30.40;85.90
54518;DHT22;40423;53.176;6.002;2023-07-08T11:36:29;30.30;83.20
54518;DHT22;40423;53.176;6.002;2023-07-08T11:38:56;30.30;81.10
54518;DHT22;40423;53.176;6.002;2023-07-08T11:41:27;30.30;83.20
54518;DHT22;40423;53.176;6.002;2023-07-08T11:43:59;30.50;81.10
54518;DHT22;40423;53.176;6.002;2023-07-08T11:46:30;30.50;81.30
54518;DHT22;40423;53.176;6.002;2023-07-08T11:49:04;30.60;82.40
54518;DHT22;40423;53.176;6.002;2023-07-08T11:51:32;30.80;82.60
54518;DHT22;40423;53.176;6.002;2023-07-08T11:54:17;31.00;82.60
54518;DHT22;40423;53.176;6.002;2023-07-08T11:56:50;31.00;79.50
54518;DHT22;40423;53.176;6.002;2023-07-08T11:59:29;31.00;80.00
54518;DHT22;40423;53.176;6.002;2023-07-08T12:02:18;31.10;81.00
54518;DHT22;40423;53.176;6.002;2023-07-08T12:07:40;31.10;79.40
54518;DHT22;40423;53.176;6.002;2023-07-08T12:10:17;31.10;79.00
54518;DHT22;40423;53.176;6.002;2023-07-08T12:12:45;31.20;80.10
54518;DHT22;40423;53.176;6.002;2023-07-08T12:15:31;31.10;78.20
54518;DHT22;40423;53.176;6.002;2023-07-08T12:18:28;31.20;75.20
54518;DHT22;40423;53.176;6.002;2023-07-08T12:20:58;31.20;78.00
54518;DHT22;40423;53.176;6.002;2023-07-08T12:23:26;31.30;76.90
54518;DHT22;40423;53.176;6.002;2023-07-08T12:25:52;31.20;75.70
54518;DHT22;40423;53.176;6.002;2023-07-08T12:28:20;31.20;75.30
54518;DHT22;40423;53.176;6.002;2023-07-08T12:30:47;31.10;77.70
54518;DHT22;40423;53.176;6.002;2023-07-08T12:33:18;31.30;77.30
54518;DHT22;40423;53.176;6.002;2023-07-08T12:35:45;31.40;75.80
54518;DHT22;40423;53.176;6.002;2023-07-08T12:38:28;31.40;75.60
54518;DHT22;40423;53.176;6.002;2023-07-08T12:41:12;31.40;74.50
54518;DHT22;40423;53.176;6.002;2023-07-08T12:43:38;31.50;74.30
54518;DHT22;40423;53.176;6.002;2023-07-08T12:46:04;31.60;75.70
54518;DHT22;40423;53.176;6.002;2023-07-08T12:48:39;31.80;76.50
54518;DHT22;40423;53.176;6.002;2023-07-08T12:51:12;31.90;76.30
54518;DHT22;40423;53.176;6.002;2023-07-08T12:53:37;32.00;77.50
54518;DHT22;40423;53.176;6.002;2023-07-08T12:56:04;32.10;76.80
54518;DHT22;40423;53.176;6.002;2023-07-08T12:58:32;32.10;75.80
54518;DHT22;40423;53.176;6.002;2023-07-08T13:01:01;32.20;76.00
54518;DHT22;40423;53.176;6.002;2023-07-08T13:03:31;32.50;75.30
54518;DHT22;40423;53.176;6.002;2023-07-08T13:06:01;32.50;75.60
54518;DHT22;40423;53.176;6.002;2023-07-08T13:08:30;32.60;73.00
54518;DHT22;40423;53.176;6.002;2023-07-08T13:10:59;32.50;72.50
54518;DHT22;40423;53.176;6.002;2023-07-08T13:13:39;32.40;73.40
54518;DHT22;40423;53.176;6.002;2023-07-08T13:16:08;32.60;75.00
54518;DHT22;40423;53.176;6.002;2023-07-08T13:18:42;32.80;72.40
54518;DHT22;40423;53.176;6.002;2023-07-08T13:21:14;32.80;71.60
54518;DHT22;40423;53.176;6.002;2023-07-08T13:23:41;32.60;71.60
54518;DHT22;40423;53.176;6.002;2023-07-08T13:26:21;32.60;75.20
54518;DHT22;40423;53.176;6.002;2023-07-08T13:28:48;33.00;76.40
54518;DHT22;40423;53.176;6.002;2023-07-08T13:31:24;33.10;74.00
54518;DHT22;40423;53.176;6.002;2023-07-08T13:33:56;33.10;70.20
54518;DHT22;40423;53.176;6.002;2023-07-08T13:36:34;33.30;72.70
54518;DHT22;40423;53.176;6.002;2023-07-08T13:39:07;33.40;72.30
54518;DHT22;40423;53.176;6.002;2023-07-08T13:41:34;33.30;71.40
54518;DHT22;40423;53.176;6.002;2023-07-08T13:44:07;33.50;73.00
54518;DHT22;40423;53.176;6.002;2023-07-08T13:46:39;33.60;72.60
54518;DHT22;40423;53.176;6.002;2023-07-08T13:49:14;33.50;71.10
54518;DHT22;40423;53.176;6.002;2023-07-08T13:51:41;33.60;72.20
54518;DHT22;40423;53.176;6.002;2023-07-08T13:54:22;33.50;69.40
54518;DHT22;40423;53.176;6.002;2023-07-08T13:56:50;33.50;69.50
54518;DHT22;40423;53.176;6.002;2023-07-08T13:59:23;33.40;70.70
54518;DHT22;40423;53.176;6.002;2023-07-08T14:01:51;33.30;68.60
54518;DHT22;40423;53.176;6.002;2023-07-08T14:04:24;33.20;68.80
54518;DHT22;40423;53.176;6.002;2023-07-08T14:06:52;33.00;68.80
54518;DHT22;40423;53.176;6.002;2023-07-08T14:09:20;33.00;69.90
54518;DHT22;40423;53.176;6.002;2023-07-08T14:11:48;33.10;69.10
54518;DHT22;40423;53.176;6.002;2023-07-08T14:14:14;33.20;70.00
54518;DHT22;40423;53.176;6.002;2023-07-08T14:16:43;33.40;70.10
54518;DHT22;40423;53.176;6.002;2023-07-08T14:19:15;33.40;68.50
54518;DHT22;40423;53.176;6.002;2023-07-08T14:21:42;33.50;67.70
54518;DHT22;40423;53.176;6.002;2023-07-08T14:24:13;33.50;68.80
54518;DHT22;40423;53.176;6.002;2023-07-08T14:26:44;33.50;68.10
54518;DHT22;40423;53.176;6.002;2023-07-08T14:29:10;33.60;67.90
54518;DHT22;40423;53.176;6.002;2023-07-08T14:31:36;33.70;65.50
54518;DHT22;40423;53.176;6.002;2023-07-08T14:34:17;33.60;66.40
54518;DHT22;40423;53.176;6.002;2023-07-08T14:36:47;33.70;66.70
54518;DHT22;40423;53.176;6.002;2023-07-08T14:39:14;33.60;66.10
54518;DHT22;40423;53.176;6.002;2023-07-08T14:41:41;33.60;65.10
54518;DHT22;40423;53.176;6.002;2023-07-08T14:44:32;33.50;65.60
54518;DHT22;40423;53.176;6.002;2023-07-08T14:46:58;33.60;64.30
54518;DHT22;40423;53.176;6.002;2023-07-08T14:49:24;33.50;64.60
54518;DHT22;40423;53.176;6.002;2023-07-08T14:51:51;33.50;65.30
54518;DHT22;40423;53.176;6.002;2023-07-08T14:54:18;33.50;65.00
54518;DHT22;40423;53.176;6.002;2023-07-08T14:56:45;33.50;65.60
54518;DHT22;40423;53.176;6.002;2023-07-08T14:59:20;33.50;64.90
54518;DHT22;40423;53.176;6.002;2023-07-08T15:01:46;33.60;65.30
54518;DHT22;40423;53.176;6.002;2023-07-08T15:04:14;33.60;65.50
54518;DHT22;40423;53.176;6.002;2023-07-08T15:06:41;33.50;65.50
54518;DHT22;40423;53.176;6.002;2023-07-08T15:09:07;33.60;65.20
54518;DHT22;40423;53.176;6.002;2023-07-08T15:11:34;33.50;63.60
54518;DHT22;40423;53.176;6.002;2023-07-08T15:14:00;33.40;64.90
54518;DHT22;40423;53.176;6.002;2023-07-08T15:16:27;33.40;64.90
54518;DHT22;40423;53.176;6.002;2023-07-08T15:18:53;33.40;64.00
54518;DHT22;40423;53.176;6.002;2023-07-08T15:21:19;33.20;63.50
54518;DHT22;40423;53.176;6.002;2023-07-08T15:23:44;33.00;62.70
54518;DHT22;40423;53.176;6.002;2023-07-08T15:26:14;32.80;64.20
54518;DHT22;40423;53.176;6.002;2023-07-08T15:28:46;32.80;63.70
54518;DHT22;40423;53.176;6.002;2023-07-08T15:31:21;32.60;62.80
54518;DHT22;40423;53.176;6.002;2023-07-08T15:33:51;32.50;61.70
54518;DHT22;40423;53.176;6.002;2023-07-08T15:36:17;32.50;63.30
54518;DHT22;40423;53.176;6.002;2023-07-08T15:38:44;32.50;63.70
54518;DHT22;40423;53.176;6.002;2023-07-08T15:43:44;32.40;63.80
54518;DHT22;40423;53.176;6.002;2023-07-08T15:46:10;32.40;64.80
54518;DHT22;40423;53.176;6.002;2023-07-08T15:48:36;32.50;65.30
54518;DHT22;40423;53.176;6.002;2023-07-08T15:51:01;32.40;64.40
54518;DHT22;40423;53.176;6.002;2023-07-08T15:53:27;32.20;64.20
54518;DHT22;40423;53.176;6.002;2023-07-08T15:55:53;32.10;63.80
54518;DHT22;40423;53.176;6.002;2023-07-08T15:58:26;32.00;64.00
54518;DHT22;40423;53.176;6.002;2023-07-08T16:00:53;32.00;64.60
54518;DHT22;40423;53.176;6.002;2023-07-08T16:03:24;32.00;64.10
54518;DHT22;40423;53.176;6.002;2023-07-08T16:05:52;31.90;64.30
54518;DHT22;40423;53.176;6.002;2023-07-08T16:08:22;31.80;64.40
54518;DHT22;40423;53.176;6.002;2023-07-08T16:10:58;31.80;65.10
54518;DHT22;40423;53.176;6.002;2023-07-08T16:13:29;31.80;65.30
54518;DHT22;40423;53.176;6.002;2023-07-08T16:15:56;31.80;65.90
54518;DHT22;40423;53.176;6.002;2023-07-08T16:18:22;31.80;64.70
54518;DHT22;40423;53.176;6.002;2023-07-08T16:20:48;31.70;64.20
54518;DHT22;40423;53.176;6.002;2023-07-08T16:23:14;31.70;64.30
54518;DHT22;40423;53.176;6.002;2023-07-08T16:25:43;31.70;64.20
54518;DHT22;40423;53.176;6.002;2023-07-08T16:28:29;31.60;64.40